Map

Track Data

SID SEASON NUMBER BASIN SUBBASIN NAME ISO_TIME NATURE LAT LON WMO_WIND WMO_PRES WMO_AGENCY TRACK_TYPE DIST2LAND LANDFALL IFLAG USA_AGENCY USA_ATCF_ID USA_LAT USA_LON USA_RECORD USA_STATUS USA_WIND USA_PRES USA_SSHS USA_R34_NE USA_R34_SE USA_R34_SW USA_R34_NW USA_R50_NE USA_R50_SE USA_R50_SW USA_R50_NW USA_R64_NE USA_R64_SE USA_R64_SW USA_R64_NW USA_POCI USA_ROCI USA_RMW USA_EYE TOKYO_LAT TOKYO_LON TOKYO_GRADE TOKYO_WIND TOKYO_PRES TOKYO_R50_DIR TOKYO_R50_LONG TOKYO_R50_SHORT TOKYO_R30_DIR TOKYO_R30_LONG TOKYO_R30_SHORT TOKYO_LAND CMA_LAT CMA_LON CMA_CAT CMA_WIND CMA_PRES HKO_LAT HKO_LON HKO_CAT HKO_WIND HKO_PRES NEWDELHI_LAT NEWDELHI_LON NEWDELHI_GRADE NEWDELHI_WIND NEWDELHI_PRES NEWDELHI_CI NEWDELHI_DP NEWDELHI_POCI REUNION_LAT REUNION_LON REUNION_TYPE REUNION_WIND REUNION_PRES REUNION_TNUM REUNION_CI REUNION_RMW REUNION_R34_NE REUNION_R34_SE REUNION_R34_SW REUNION_R34_NW REUNION_R50_NE REUNION_R50_SE REUNION_R50_SW REUNION_R50_NW REUNION_R64_NE REUNION_R64_SE REUNION_R64_SW REUNION_R64_NW BOM_LAT BOM_LON BOM_TYPE BOM_WIND BOM_PRES BOM_TNUM BOM_CI BOM_RMW BOM_R34_NE BOM_R34_SE BOM_R34_SW BOM_R34_NW BOM_R50_NE BOM_R50_SE BOM_R50_SW BOM_R50_NW BOM_R64_NE BOM_R64_SE BOM_R64_SW BOM_R64_NW BOM_ROCI BOM_POCI BOM_EYE BOM_POS_METHOD BOM_PRES_METHOD NADI_LAT NADI_LON NADI_CAT NADI_WIND NADI_PRES WELLINGTON_LAT WELLINGTON_LON WELLINGTON_WIND WELLINGTON_PRES DS824_LAT DS824_LON DS824_STAGE DS824_WIND DS824_PRES TD9636_LAT TD9636_LON TD9636_STAGE TD9636_WIND TD9636_PRES TD9635_LAT TD9635_LON TD9635_WIND TD9635_PRES TD9635_ROCI NEUMANN_LAT NEUMANN_LON NEUMANN_CLASS NEUMANN_WIND NEUMANN_PRES MLC_LAT MLC_LON MLC_CLASS MLC_WIND MLC_PRES USA_GUST BOM_GUST BOM_GUST_PER REUNION_GUST REUNION_GUST_PER USA_SEAHGT USA_SEARAD_NE USA_SEARAD_SE USA_SEARAD_SW USA_SEARAD_NW STORM_SPEED STORM_DIR
1897257N16123 1897 28 WP MM NOT_NAMED 1897-09-14 04:00:00 NR 16.1000 122.600 main 44 10 __________O___ -1 16.1000 122.600 3 10 281
1897257N16123 1897 28 WP MM NOT_NAMED 1897-09-14 06:00:00 NR 16.1621 122.253 main 10 0 __________P___ -1 16.1621 122.253 3 10 281
1897257N16123 1897 28 WP MM NOT_NAMED 1897-09-14 09:00:00 NR 16.2564 121.737 main 0 0 __________P___ -1 16.2564 121.737 3 10 281
1897257N16123 1897 28 WP MM NOT_NAMED 1897-09-14 12:00:00 NR 16.3552 121.235 main 0 0 __________P___ -1 16.3552 121.235 3 10 282
1897257N16123 1897 28 WP MM NOT_NAMED 1897-09-14 15:00:00 NR 16.4620 120.754 main 0 0 __________P___ -1 16.4620 120.754 3 9 283
1897257N16123 1897 28 WP MM NOT_NAMED 1897-09-14 16:00:00 NR 16.5000 120.600 main 0 0 __________O___ -1 16.5000 120.600 4 9 285
1897257N16123 1897 28 WP MM NOT_NAMED 1897-09-14 18:00:00 NR 16.5800 120.303 main 0 0 __________P___ -1 16.5800 120.303 4 9 287
1897257N16123 1897 28 WP MM NOT_NAMED 1897-09-14 21:00:00 NR 16.7065 119.882 main 44 44 __________P___ -1 16.7065 119.882 4 8 288
1897257N16123 1897 28 WP MM NOT_NAMED 1897-09-15 00:00:00 NR 16.8354 119.488 main 64 64 __________P___ -1 16.8354 119.488 4 8 289
1897257N16123 1897 28 WP MM NOT_NAMED 1897-09-15 03:00:00 NR 16.9604 119.118 main 108 108 __________P___ -1 16.9604 119.118 4 7 289
1897257N16123 1897 28 WP MM NOT_NAMED 1897-09-15 04:00:00 NR 17.0000 119.000 main 115 115 __________O___ -1 17.0000 119.000 4 7 288
1897257N16123 1897 28 WP MM NOT_NAMED 1897-09-15 06:00:00 NR 17.0722 118.758 main 139 147 __________P___ -1 17.0722 118.758 4 7 287
1897257N16123 1897 28 WP MM NOT_NAMED 1897-09-15 09:00:00 NR 17.1744 118.414 main 179 179 __________P___ -1 17.1744 118.414 4 7 287
1897257N16123 1897 28 WP MM NOT_NAMED 1897-09-15 12:00:00 NR 17.2719 118.093 main 212 212 __________P___ -1 17.2719 118.093 4 6 288
1897257N16123 1897 28 WP MM NOT_NAMED 1897-09-15 15:00:00 NR 17.3678 117.795 main 245 245 __________P___ -1 17.3678 117.795 4 6 289
1897257N16123 1897 28 WP MM NOT_NAMED 1897-09-15 16:00:00 NR 17.4000 117.700 main 255 255 __________O___ -1 17.4000 117.700 4 5 290
1897257N16123 1897 28 WP MM NOT_NAMED 1897-09-15 18:00:00 NR 17.4611 117.529 main 279 279 __________P___ -1 17.4611 117.529 4 5 291
1897257N16123 1897 28 WP MM NOT_NAMED 1897-09-15 21:00:00 NR 17.5528 117.292 main 303 303 __________P___ -1 17.5528 117.292 4 5 293
1897257N16123 1897 28 WP MM NOT_NAMED 1897-09-16 00:00:00 NR 17.6503 117.056 main 327 336 __________P___ -1 17.6503 117.056 4 5 294
1897257N16123 1897 28 WP MM NOT_NAMED 1897-09-16 03:00:00 NR 17.7598 116.796 main 360 360 __________P___ -1 17.7598 116.796 4 6 294
1897257N16123 1897 28 WP MM NOT_NAMED 1897-09-16 04:00:00 NR 17.8000 116.700 main 369 369 __________O___ -1 17.8000 116.700 4 7 293
1897257N16123 1897 28 WP MM NOT_NAMED 1897-09-16 06:00:00 NR 17.8886 116.481 main 393 393 __________P___ -1 17.8886 116.481 4 7 293
1897257N16123 1897 28 WP MM NOT_NAMED 1897-09-16 09:00:00 NR 18.0341 116.121 main 436 436 __________P___ -1 18.0341 116.121 4 8 293
1897257N16123 1897 28 WP MM NOT_NAMED 1897-09-16 12:00:00 NR 18.1891 115.735 main 481 459 __________P___ -1 18.1891 115.735 4 8 293
1897257N16123 1897 28 WP MM NOT_NAMED 1897-09-16 15:00:00 NR 18.3475 115.334 main 459 446 __________P___ -1 18.3475 115.334 4 8 293
1897257N16123 1897 28 WP MM NOT_NAMED 1897-09-16 16:00:00 NR 18.4000 115.200 main 446 431 __________O___ -1 18.4000 115.200 4 7 293
1897257N16123 1897 28 WP MM NOT_NAMED 1897-09-16 18:00:00 NR 18.4886 114.978 main 431 394 __________P___ -1 18.4886 114.978 4 7 293
1897257N16123 1897 28 WP MM NOT_NAMED 1897-09-16 21:00:00 NR 18.6216 114.639 main 394 357 __________P___ -1 18.6216 114.639 4 7 292
1897257N16123 1897 28 WP MM NOT_NAMED 1897-09-17 00:00:00 NR 18.7663 114.256 main 357 304 __________P___ -1 18.7663 114.256 4 9 291
1897257N16123 1897 28 WP MM NOT_NAMED 1897-09-17 03:00:00 NR 18.9358 113.784 main 304 280 __________P___ -1 18.9358 113.784 4 10 291
1897257N16123 1897 28 WP MM NOT_NAMED 1897-09-17 04:00:00 NR 19.0000 113.600 main 280 237 __________O___ -1 19.0000 113.600 4 12 289
1897257N16123 1897 28 WP MM NOT_NAMED 1897-09-17 06:00:00 NR 19.1393 113.164 main 237 148 __________P___ -1 19.1393 113.164 4 14 288
1897257N16123 1897 28 WP MM NOT_NAMED 1897-09-17 09:00:00 NR 19.3730 112.415 main 148 62 __________P___ -1 19.3730 112.415 4 16 288
1897257N16123 1897 28 WP MM NOT_NAMED 1897-09-17 12:00:00 NR 19.6303 111.599 main 62 0 __________P___ -1 19.6303 111.599 4 16 289
1897257N16123 1897 28 WP MM NOT_NAMED 1897-09-17 15:00:00 NR 19.9053 110.770 main 0 0 __________P___ -1 19.9053 110.770 4 16 290
1897257N16123 1897 28 WP MM NOT_NAMED 1897-09-17 16:00:00 NR 20.0000 110.500 main 0 0 __________O___ -1 20.0000 110.500 4 16 291
1897257N16123 1897 28 WP MM NOT_NAMED 1897-09-17 18:00:00 NR 20.1930 109.978 main 10 0 __________P___ -1 20.1930 109.978 4 15 292
1897257N16123 1897 28 WP MM NOT_NAMED 1897-09-17 21:00:00 NR 20.4900 109.234 main 61 61 __________P___ -1 20.4900 109.234 4 15 294
1897257N16123 1897 28 WP MM NOT_NAMED 1897-09-18 00:00:00 NR 20.7930 108.523 main 84 30 __________P___ -1 20.7930 108.523 4 14 295
1897257N16123 1897 28 WP MM NOT_NAMED 1897-09-18 03:00:00 NR 21.0984 107.830 main 30 11 __________P___ -1 21.0984 107.830 4 14 295
1897257N16123 1897 28 WP MM NOT_NAMED 1897-09-18 04:00:00 NR 21.2000 107.600 main 11 __________O___ -1 21.2000 107.600 4 14 295

Digital Typhoon Data and Search

About IBTrACS Database

This database is a web-friendly format of International Best Track Archive for Climate Stewardship (IBTrACS), a global best track data archive curated by NOAA dating back to 1842.

Updated: 2021-12-06